KMKO

Muskogee-Davis Regional Airport

Muskogee, Oklahoma, USA
METAR KMKO 151853Z AUTO 31008KT 10SM FEW038 09/M02 A3023 RMK AO2 SLP239 T00891017
Observed Flight Rules
Dec-15 @ 18:53 UTC (44 minutes ago) Visual Flight Rules
Wind Visibility Clouds
310° at 8 knots 10 miles
  • Few at 3,800' AGL
Temperatures Readings
Current 9°C / 48°F
Dewpoint -2°C / 28°F
Humidity 46%
Altimeter 30.23" Hg
Pressure 1023.9 hPa
Elevation 185
METAR KMKO 151853Z AUTO 31008KT 10SM FEW038 09/M02 A3023 RMK AO2 SLP239 T00891017
Observed Flight Rules
Dec-15 @ 18:53 UTC
(44 minutes ago)
VFR
Wind Visibility
310° at 8 knots 10 miles
Clouds
  • Few at 3,800' AGL
Temperature Dewpoint
9°C / 48°F -2°C / 28°F
Humidity Altimeter Pressure
46% 30.23" Hg 1023.9 hPa